Time;durP1;ratioP1;P1;durP2;ratioP2;P2;SDS_P1;SDS_P2;PMS_P1;PMS_P2;Temp;Humidity;BMP_temperature;BMP_pressure;BME280_temperature;BME280_humidity;BME280_pressure;Samples;Min_cycle;Max_cycle;Signal;HPM_P1;HPM_P2
2022/11/11 00:01:11;;;;;;;40.33;19.25;;;;;;;6.39;85.45;99983.48;1588487;90;25595;-64
2022/11/11 00:03:37;;;;;;;42.40;20.85;;;;;;;6.31;85.49;99981.21;1588353;90;26688;-65
2022/11/11 00:06:08;;;;;;;40.78;20.32;;;;;;;6.25;85.61;99988.47;1588529;90;25485;-64
2022/11/11 00:08:35;;;;;;;44.30;20.10;;;;;;;6.19;85.54;99984.02;1586980;90;27557;-64
2022/11/11 00:11:06;;;;;;;42.40;20.62;;;;;;;6.15;85.92;99982.36;1587944;90;25527;-64
2022/11/11 00:13:34;;;;;;;37.10;19.20;;;;;;;6.12;85.71;99982.03;1586433;90;25503;-64
2022/11/11 00:16:13;;;;;;;37.38;20.50;;;;;;;6.10;86.05;99991.00;1588017;90;25713;-63
2022/11/11 00:25:04;;;;;;;37.95;20.12;;;;;;;6.09;86.15;99998.34;1587995;90;25734;-63
2022/11/11 00:26:39;;;;;;;40.00;20.12;;;;;;;6.05;85.89;100008.08;1588059;90;25970;-64
2022/11/11 00:29:06;;;;;;;35.10;19.05;;;;;;;6.05;85.96;100012.69;1590201;89;25742;-64
2022/11/11 00:31:34;;;;;;;42.98;21.02;;;;;;;6.04;86.08;100015.94;1600401;89;25457;-64
2022/11/11 00:34:01;;;;;;;34.83;19.23;;;;;;;6.06;86.14;100019.77;1600341;89;27568;-64
2022/11/11 00:39:13;;;;;;;37.58;19.57;;;;;;;6.10;86.36;100025.83;1599423;89;25737;-64
2022/11/11 00:41:39;;;;;;;30.12;17.30;;;;;;;6.13;86.85;100019.88;1599364;89;25768;-64
2022/11/11 00:44:06;;;;;;;35.80;18.15;;;;;;;6.18;86.96;100023.75;1599343;89;25631;-64
2022/11/11 00:52:01;;;;;;;33.90;17.37;;;;;;;6.24;87.17;100023.58;1599444;89;25501;-64
2022/11/11 00:54:28;;;;;;;34.43;17.17;;;;;;;6.28;87.21;100025.27;1623156;88;25676;-65
2022/11/11 00:56:55;;;;;;;30.68;16.15;;;;;;;6.30;87.29;100027.75;1599321;89;25464;-65
2022/11/11 00:59:21;;;;;;;30.10;16.27;;;;;;;6.35;87.48;100026.44;1599234;89;27502;-65
2022/11/11 01:01:47;;;;;;;29.82;14.35;;;;;;;6.40;87.43;100026.52;1599110;89;25652;-65
2022/11/11 01:04:14;;;;;;;25.32;13.40;;;;;;;6.43;87.69;100022.45;1599167;89;25498;-65
2022/11/11 01:06:40;;;;;;;22.62;11.75;;;;;;;6.49;87.91;100020.92;1599057;89;25809;-65
2022/11/11 01:09:07;;;;;;;27.58;14.78;;;;;;;6.55;88.36;100014.16;1599021;89;25489;-65
2022/11/11 01:11:34;;;;;;;29.00;16.00;;;;;;;6.59;88.30;100012.59;1599346;89;27484;-65
2022/11/11 01:14:00;;;;;;;25.08;13.68;;;;;;;6.62;88.31;100015.62;1599052;89;25481;-65
2022/11/11 01:16:27;;;;;;;28.80;15.60;;;;;;;6.65;88.27;100005.58;1599310;89;25476;-65
2022/11/11 01:18:54;;;;;;;27.80;15.13;;;;;;;6.70;88.53;100001.26;1599322;89;26224;-65
2022/11/11 01:21:24;;;;;;;33.18;15.60;;;;;;;6.73;88.47;100008.40;1599081;89;25721;-65
2022/11/11 01:23:53;;;;;;;31.15;15.78;;;;;;;6.79;88.43;100003.82;1599433;89;27449;-65
2022/11/11 01:26:24;;;;;;;26.57;14.55;;;;;;;6.84;88.27;100007.98;1599140;89;25702;-65
2022/11/11 01:28:54;;;;;;;32.78;16.15;;;;;;;6.89;88.19;100002.59;1599235;89;25680;-65
2022/11/11 01:31:23;;;;;;;24.65;13.95;;;;;;;6.95;88.08;99995.82;1599280;89;25740;-66
2022/11/11 01:33:50;;;;;;;27.75;14.07;;;;;;;6.97;88.14;99991.75;1599385;89;25495;-65
2022/11/11 01:36:24;;;;;;;28.77;15.30;;;;;;;7.01;87.85;99987.98;1599300;89;27483;-65
2022/11/11 01:38:54;;;;;;;31.57;14.90;;;;;;;7.03;87.70;99992.09;1598913;89;25755;-65
2022/11/11 01:41:34;;;;;;;28.87;15.10;;;;;;;7.05;87.69;99993.20;1599393;89;25647;-65
2022/11/11 01:44:14;;;;;;;30.52;15.90;;;;;;;7.07;87.55;99994.30;1599183;89;25751;-65
2022/11/11 01:46:55;;;;;;;28.60;15.43;;;;;;;7.09;87.57;99995.71;1599120;89;32686;-63
2022/11/11 01:49:36;;;;;;;31.97;15.38;;;;;;;7.13;87.47;100002.81;1598777;89;27460;-63
2022/11/11 01:52:09;;;;;;;31.00;14.85;;;;;;;7.14;87.26;100001.76;1598975;89;25464;-63
2022/11/11 01:54:41;;;;;;;26.87;13.90;;;;;;;7.12;87.14;99997.09;1598439;89;25549;-63
2022/11/11 01:57:28;;;;;;;28.80;15.35;;;;;;;7.09;87.17;100002.53;1598856;89;25766;-63
2022/11/11 01:59:59;;;;;;;31.12;17.27;;;;;;;7.06;87.20;99997.59;1599086;89;25723;-63
2022/11/11 02:02:48;;;;;;;32.45;15.10;;;;;;;7.07;87.10;100004.67;1599265;89;28217;-63
2022/11/11 02:08:09;;;;;;;32.83;17.12;;;;;;;7.07;87.04;100001.95;1599175;89;25622;-63
2022/11/11 02:10:41;;;;;;;28.90;15.25;;;;;;;7.06;86.96;100003.56;1599386;89;25766;-64
2022/11/11 02:15:59;;;;;;;26.93;14.33;;;;;;;7.02;86.66;100000.52;1626445;88;25695;-65
2022/11/11 02:18:27;;;;;;;28.02;14.87;;;;;;;6.98;86.72;100000.77;1626049;88;25720;-65
2022/11/11 02:20:53;;;;;;;45.00;21.48;;;;;;;6.93;86.72;100002.89;1626184;88;25700;-64
2022/11/11 02:23:31;;;;;;;29.02;14.68;;;;;;;6.92;86.61;100000.42;1626471;88;26939;-65
2022/11/11 02:26:01;;;;;;;28.42;14.05;;;;;;;6.90;86.54;100011.05;1626542;88;25624;-65
2022/11/11 02:28:29;;;;;;;19.62;10.03;;;;;;;6.90;86.42;100018.39;1626584;88;27586;-65
2022/11/11 02:30:56;;;;;;;24.72;12.30;;;;;;;6.86;86.51;100005.83;1626287;88;25728;-65
2022/11/11 02:33:22;;;;;;;24.37;13.20;;;;;;;6.86;86.43;100017.27;1627016;88;25620;-65
2022/11/11 02:35:56;;;;;;;22.65;11.97;;;;;;;6.83;86.52;100021.33;1626376;88;26213;-65
2022/11/11 02:38:25;;;;;;;25.60;13.68;;;;;;;6.83;86.61;100024.05;1610075;88;25593;-64
2022/11/11 02:43:36;;;;;;;26.02;13.68;;;;;;;6.77;86.74;100026.43;1587481;90;25500;-65
2022/11/11 02:46:06;;;;;;;23.92;12.13;;;;;;;6.73;86.77;100028.83;1587682;90;25660;-65
2022/11/11 02:48:34;;;;;;;21.70;12.18;;;;;;;6.72;86.81;100027.19;1587691;90;25783;-65
2022/11/11 02:51:00;;;;;;;21.10;12.10;;;;;;;6.71;86.72;100028.81;1587655;90;25540;-65
2022/11/11 02:53:27;;;;;;;24.15;12.65;;;;;;;6.73;86.61;100031.55;1587583;89;27460;-65
2022/11/11 02:55:54;;;;;;;22.15;12.78;;;;;;;6.71;86.38;100038.34;1587615;90;25702;-65
2022/11/11 02:58:20;;;;;;;22.22;12.13;;;;;;;6.70;86.52;100044.84;1587644;90;25681;-64
2022/11/11 03:00:47;;;;;;;19.98;12.47;;;;;;;6.71;86.35;100038.34;1587690;90;25719;-64
2022/11/11 03:03:13;;;;;;;23.55;12.05;;;;;;;6.71;86.22;100039.70;1587515;90;25623;-64
2022/11/11 03:05:39;;;;;;;19.05;10.72;;;;;;;6.70;86.21;100036.14;1587495;90;27461;-64
2022/11/11 03:08:05;;;;;;;15.20;9.55;;;;;;;6.68;86.13;100038.29;1587371;90;27228;-65
2022/11/11 03:10:32;;;;;;;18.55;10.48;;;;;;;6.70;86.23;100032.59;1587852;90;25681;-65
2022/11/11 03:12:58;;;;;;;19.07;9.95;;;;;;;6.67;86.11;100029.84;1587474;89;25755;-65
2022/11/11 03:15:25;;;;;;;15.03;8.63;;;;;;;6.63;86.10;100024.09;1587530;88;25460;-65
2022/11/11 03:17:51;;;;;;;13.60;7.70;;;;;;;6.61;86.04;100024.05;1587797;88;27595;-65
2022/11/11 03:23:13;;;;;;;11.12;6.25;;;;;;;6.51;86.21;100022.03;1587473;90;25701;-65
2022/11/11 03:25:48;;;;;;;15.50;8.30;;;;;;;6.46;86.35;100020.06;1587293;89;25851;-64
2022/11/11 03:28:19;;;;;;;13.83;7.30;;;;;;;6.37;86.53;100021.57;1587748;90;25743;-65
2022/11/11 03:30:49;;;;;;;22.07;9.60;;;;;;;6.34;86.48;100017.47;1587596;90;27606;-65
2022/11/11 03:33:17;;;;;;;15.25;7.03;;;;;;;6.33;86.29;100023.96;1587397;90;25666;-65
2022/11/11 03:35:48;;;;;;;15.28;8.15;;;;;;;6.31;86.46;100018.49;1587914;90;25469;-65
2022/11/11 03:38:15;;;;;;;8.78;4.92;;;;;;;6.29;86.44;100022.83;1589524;88;25733;-65
2022/11/11 03:40:46;;;;;;;12.37;7.65;;;;;;;6.27;86.50;100021.72;1593933;90;25649;-65
2022/11/11 03:43:15;;;;;;;14.33;8.08;;;;;;;6.28;86.29;100023.36;1594076;90;27493;-65
2022/11/11 03:45:42;;;;;;;14.75;7.85;;;;;;;6.30;85.97;100029.91;1593668;90;25779;-65
2022/11/11 03:48:09;;;;;;;16.15;8.78;;;;;;;6.28;85.99;100024.72;1593985;90;25630;-65
2022/11/11 03:50:36;;;;;;;17.95;8.55;;;;;;;6.29;85.96;100026.91;1593703;90;25832;-65
2022/11/11 03:53:03;;;;;;;17.60;9.10;;;;;;;6.28;85.88;100026.64;1593733;90;25673;-65
2022/11/11 03:55:29;;;;;;;13.70;8.70;;;;;;;6.27;85.68;100024.44;1594037;90;27312;-65
2022/11/11 03:57:56;;;;;;;11.90;7.53;;;;;;;6.25;85.89;100012.97;1593642;90;25659;-65
2022/11/11 04:00:26;;;;;;;12.47;7.10;;;;;;;6.24;85.97;100014.58;1594060;90;25515;-65
2022/11/11 04:11:29;;;;;;;13.28;6.90;;;;;;;6.12;86.11;99999.72;1593700;90;25480;-65
2022/11/11 04:16:46;;;;;;;14.03;7.85;;;;;;;5.98;86.30;100002.77;1594038;90;25525;-65
2022/11/11 04:21:58;;;;;;;17.85;9.43;;;;;;;5.94;86.24;99987.19;1593716;90;27504;-65
2022/11/11 04:27:13;;;;;;;15.43;7.87;;;;;;;5.92;86.39;99982.00;1593899;90;25645;-65
2022/11/11 04:29:40;;;;;;;13.13;7.75;;;;;;;5.90;86.28;99990.94;1594019;90;25694;-65
2022/11/11 04:35:02;;;;;;;13.75;8.08;;;;;;;5.88;85.98;100002.63;1593807;90;27478;-65
2022/11/11 04:37:34;;;;;;;14.15;8.63;;;;;;;5.81;85.84;100006.06;1593984;90;25837;-65
2022/11/11 04:42:46;;;;;;;19.57;12.25;;;;;;;5.71;85.99;100009.43;1593742;90;25671;-65
2022/11/11 04:45:32;;;;;;;20.17;11.88;;;;;;;5.71;86.09;100015.70;1593955;90;25682;-65
2022/11/11 04:48:05;;;;;;;19.87;12.33;;;;;;;5.71;86.19;100018.95;1593876;90;27481;-65
2022/11/11 04:50:38;;;;;;;21.40;11.50;;;;;;;5.69;86.03;100017.00;1593759;90;25538;-65
2022/11/11 04:53:09;;;;;;;23.73;12.40;;;;;;;5.67;86.08;100027.33;1594095;90;25665;-65
2022/11/11 04:58:25;;;;;;;20.50;11.15;;;;;;;5.58;86.02;100042.67;1593783;90;25646;-65
2022/11/11 05:00:52;;;;;;;21.05;11.63;;;;;;;5.52;85.80;100051.81;1594131;90;27914;-65
2022/11/11 05:03:20;;;;;;;20.50;11.63;;;;;;;5.50;86.02;100052.61;1593563;90;25743;-65
2022/11/11 05:08:56;;;;;;;19.65;11.00;;;;;;;5.50;85.87;100052.06;1593701;90;25695;-65
2022/11/11 05:11:34;;;;;;;22.67;12.18;;;;;;;5.45;85.67;100051.16;1593839;90;25682;-65
2022/11/11 05:22:38;;;;;;;23.07;12.63;;;;;;;5.37;86.14;100040.14;1593736;90;25832;-66
2022/11/11 05:25:24;;;;;;;21.40;12.93;;;;;;;5.39;86.09;100055.69;1594079;90;25890;-65
2022/11/11 05:27:56;;;;;;;27.37;13.93;;;;;;;5.34;85.83;100054.22;1593718;90;26668;-66
2022/11/11 05:30:24;;;;;;;23.92;12.23;;;;;;;5.31;86.09;100059.62;1593616;90;25777;-66
2022/11/11 05:32:51;;;;;;;27.70;13.53;;;;;;;5.29;85.92;100060.39;1594098;90;25458;-66
2022/11/11 05:35:18;;;;;;;19.55;11.80;;;;;;;5.23;86.05;100066.27;1570713;90;25793;-66
2022/11/11 05:38:19;;;;;;;23.83;12.05;;;;;;;5.12;85.93;100072.05;1593686;90;25655;-65
2022/11/11 05:40:13;;;;;;;25.92;14.28;;;;;;;5.02;86.07;100081.36;1591269;90;26966;-65
2022/11/11 05:42:41;;;;;;;26.05;15.23;;;;;;;4.93;86.11;100090.43;1632059;87;52783;-65
2022/11/11 05:45:09;;;;;;;27.87;15.08;;;;;;;4.92;86.50;100089.31;1632064;87;25664;-65
2022/11/11 05:47:36;;;;;;;23.80;14.43;;;;;;;4.93;86.53;100100.46;1632064;87;25803;-65
2022/11/11 05:50:03;;;;;;;27.30;14.75;;;;;;;4.93;86.30;100106.73;1632527;87;25606;-64
2022/11/11 05:52:30;;;;;;;25.48;14.30;;;;;;;4.91;86.36;100119.72;1632172;87;27418;-65
2022/11/11 05:54:57;;;;;;;26.45;14.58;;;;;;;4.96;86.47;100123.08;1632226;87;25609;-65
2022/11/11 05:57:23;;;;;;;27.30;16.35;;;;;;;4.97;86.39;100128.79;1632162;87;25656;-65
2022/11/11 05:59:50;;;;;;;28.35;15.40;;;;;;;5.02;86.51;100119.40;1632052;87;25742;-65
2022/11/11 06:02:16;;;;;;;36.60;18.02;;;;;;;5.11;86.56;100112.52;1632248;87;25427;-65
2022/11/11 06:04:42;;;;;;;42.93;28.02;;;;;;;5.15;86.33;100110.97;1632125;87;27455;-64
2022/11/11 06:07:09;;;;;;;30.32;18.40;;;;;;;5.16;86.09;100106.36;1632365;87;25757;-65
2022/11/11 06:09:35;;;;;;;26.27;14.63;;;;;;;5.18;86.28;100102.85;1632083;87;25523;-65
2022/11/11 06:12:02;;;;;;;28.47;14.93;;;;;;;5.18;85.97;100109.64;1632158;87;25825;-65
2022/11/11 06:14:28;;;;;;;31.65;15.58;;;;;;;5.13;85.99;100113.64;1632122;87;25470;-65
2022/11/11 06:16:54;;;;;;;29.85;16.20;;;;;;;5.13;86.40;100110.92;1634377;86;27423;-65
2022/11/11 06:19:20;;;;;;;30.95;15.95;;;;;;;5.18;86.78;100117.00;1657342;86;25815;-65
2022/11/11 06:21:56;;;;;;;26.73;15.20;;;;;;;5.11;86.15;100115.24;1659014;86;25731;-65
2022/11/11 06:24:23;;;;;;;30.27;16.62;;;;;;;5.07;86.43;100115.96;1659001;86;25819;-65
2022/11/11 06:26:49;;;;;;;28.30;15.58;;;;;;;5.12;86.87;100120.95;1659402;85;25445;-65
2022/11/11 06:29:15;;;;;;;28.27;15.18;;;;;;;5.17;86.57;100120.76;1659356;85;27372;-65
2022/11/11 06:31:42;;;;;;;28.17;15.65;;;;;;;5.23;87.07;100116.55;1658890;86;27199;-65
2022/11/11 06:34:08;;;;;;;27.35;14.28;;;;;;;5.31;86.68;100106.36;1659049;85;25417;-65
2022/11/11 06:36:34;;;;;;;22.17;13.05;;;;;;;5.39;86.72;100100.55;1633020;85;25724;-65
2022/11/11 06:39:00;;;;;;;24.07;13.13;;;;;;;5.43;86.67;100103.58;1630012;87;25681;-65
2022/11/11 06:41:27;;;;;;;23.32;12.15;;;;;;;5.47;86.66;100104.21;1616906;88;27460;-65
2022/11/11 06:43:53;;;;;;;24.35;12.82;;;;;;;5.51;86.66;100097.77;1616892;88;25697;-66
2022/11/11 06:46:23;;;;;;;26.48;13.25;;;;;;;5.58;86.56;100107.14;1617299;88;25718;-65
2022/11/11 06:48:50;;;;;;;26.00;12.35;;;;;;;5.63;86.75;100103.13;1617349;88;26092;-66
2022/11/11 06:51:17;;;;;;;22.58;13.55;;;;;;;5.69;86.62;100098.59;1616953;88;25692;-66
2022/11/11 06:53:44;;;;;;;25.05;13.50;;;;;;;5.73;86.67;100095.14;1617063;88;27431;-66
2022/11/11 06:56:13;;;;;;;23.35;11.73;;;;;;;5.78;86.78;100099.33;1616920;88;25496;-66
2022/11/11 06:58:40;;;;;;;26.12;11.22;;;;;;;5.81;86.66;100098.55;1616953;88;25586;-66
2022/11/11 07:01:08;;;;;;;26.77;13.00;;;;;;;5.87;86.81;100096.18;1616896;88;27870;-66
2022/11/11 07:03:35;;;;;;;24.02;13.95;;;;;;;5.89;86.70;100089.44;1617616;88;25590;-66
2022/11/11 07:06:04;;;;;;;19.55;9.25;;;;;;;6.00;86.65;100096.41;1616945;88;29525;-66
2022/11/11 07:08:31;;;;;;;22.07;11.88;;;;;;;6.08;86.43;100104.73;1616236;88;25516;-65
2022/11/11 07:10:57;;;;;;;26.05;12.07;;;;;;;6.17;86.40;100105.13;1616990;88;25618;-66
2022/11/11 07:13:24;;;;;;;19.50;10.45;;;;;;;6.28;86.53;100102.86;1617431;88;25746;-66
2022/11/11 07:15:51;;;;;;;21.52;10.28;;;;;;;6.42;86.21;100108.77;1617111;88;25768;-66
2022/11/11 07:18:17;;;;;;;17.45;9.10;;;;;;;6.60;85.98;100102.23;1617297;88;27353;-66
2022/11/11 07:20:44;;;;;;;19.67;8.48;;;;;;;6.82;85.67;100099.23;1616968;88;25492;-66
2022/11/11 07:23:10;;;;;;;17.80;8.80;;;;;;;6.97;84.46;100104.05;1617196;88;25688;-66
2022/11/11 07:25:36;;;;;;;20.92;9.78;;;;;;;7.09;84.44;100103.39;1617002;88;25769;-66
2022/11/11 07:28:03;;;;;;;22.50;10.40;;;;;;;7.27;84.94;100101.39;1617046;88;25777;-66
2022/11/11 07:30:29;;;;;;;14.28;9.38;;;;;;;7.47;84.64;100098.06;1617278;88;27624;-66
2022/11/11 07:32:55;;;;;;;16.50;9.50;;;;;;;7.66;84.31;100097.14;1617458;88;25706;-66
2022/11/11 07:35:22;;;;;;;18.65;9.80;;;;;;;7.78;83.55;100099.70;1617182;88;25771;-66
2022/11/11 07:37:49;;;;;;;15.08;7.92;;;;;;;7.93;83.51;100091.91;1617207;88;25684;-66
2022/11/11 07:40:18;;;;;;;15.63;8.50;;;;;;;8.11;82.68;100095.61;1624619;87;25993;-66
2022/11/11 07:42:45;;;;;;;14.40;7.90;;;;;;;8.22;82.34;100094.31;1632546;87;27383;-66
2022/11/11 07:45:13;;;;;;;16.55;9.63;;;;;;;8.36;81.95;100092.78;1632641;87;25707;-66
2022/11/11 07:47:43;;;;;;;17.82;12.10;;;;;;;8.45;80.76;100100.47;1632382;87;25845;-66
2022/11/11 07:50:11;;;;;;;19.55;9.73;;;;;;;8.62;81.95;100109.36;1632638;87;25806;-66
2022/11/11 07:52:38;;;;;;;14.28;8.00;;;;;;;8.81;81.38;100105.35;1632508;87;25654;-66
2022/11/11 07:55:07;;;;;;;16.23;9.75;;;;;;;8.96;80.61;100097.76;1632201;87;27479;-66
2022/11/11 07:57:34;;;;;;;23.85;11.55;;;;;;;9.14;81.44;100090.98;1632473;87;25508;-66
2022/11/11 08:00:00;;;;;;;16.10;10.10;;;;;;;9.26;80.29;100089.37;1632244;87;25676;-66
2022/11/11 08:02:27;;;;;;;15.53;9.45;;;;;;;9.24;80.48;100082.00;1632444;87;25707;-66
2022/11/11 08:04:53;;;;;;;17.15;10.78;;;;;;;9.26;80.37;100083.90;1632237;87;25640;-66
2022/11/11 08:07:20;;;;;;;20.17;11.12;;;;;;;9.30;80.49;100091.86;1632175;87;27460;-66
2022/11/11 08:09:46;;;;;;;20.25;11.83;;;;;;;9.39;80.74;100084.74;1632311;87;25701;-65
2022/11/11 08:14:57;;;;;;;19.85;10.45;;;;;;;9.40;78.82;100087.78;1632222;87;25436;-65
2022/11/11 08:17:24;;;;;;;16.48;9.60;;;;;;;9.39;78.89;100081.20;1632223;87;25689;-65
2022/11/11 08:19:50;;;;;;;19.30;10.72;;;;;;;9.35;77.81;100078.72;1632137;87;27413;-65
2022/11/11 08:22:16;;;;;;;17.87;9.48;;;;;;;9.34;78.37;100083.38;1632435;87;25455;-65
2022/11/11 08:24:43;;;;;;;19.05;11.30;;;;;;;9.40;78.33;100078.73;1632193;87;25659;-65
2022/11/11 08:27:09;;;;;;;24.15;14.30;;;;;;;9.46;78.43;100083.12;1632141;87;25759;-65
2022/11/11 08:29:36;;;;;;;18.12;10.65;;;;;;;9.52;78.62;100083.95;1632486;87;25587;-65
2022/11/11 08:32:03;;;;;;;17.30;10.55;;;;;;;9.53;77.94;100076.84;1632138;87;27376;-65
2022/11/11 08:34:29;;;;;;;18.73;9.60;;;;;;;9.56;77.78;100067.28;1632051;87;25532;-65
2022/11/11 08:36:55;;;;;;;22.58;12.35;;;;;;;9.61;77.90;100075.48;1632176;87;25533;-65
2022/11/11 08:39:22;;;;;;;24.72;14.28;;;;;;;9.71;76.96;100082.89;1606715;87;26474;-65
2022/11/11 08:41:48;;;;;;;31.17;16.80;;;;;;;9.88;76.42;100083.97;1632271;87;25473;-65
2022/11/11 08:44:14;;;;;;;173.25;74.07;;;;;;;10.18;77.20;100088.34;1632199;87;27455;-65
2022/11/11 08:46:41;;;;;;;113.62;76.20;;;;;;;10.57;75.78;100088.31;1632366;87;25635;-65
2022/11/11 08:49:07;;;;;;;31.30;19.15;;;;;;;10.88;74.18;100089.56;1632238;87;25516;-65
2022/11/11 08:51:34;;;;;;;546.22;312.95;;;;;;;11.04;73.58;100087.59;1632310;87;25961;-64
2022/11/11 08:54:00;;;;;;;641.80;342.32;;;;;;;11.03;72.61;100089.25;1628625;87;25646;-65
2022/11/11 08:56:27;;;;;;;41.50;23.25;;;;;;;11.23;74.60;100101.22;1649757;86;27881;-64
2022/11/11 08:58:53;;;;;;;501.15;263.37;;;;;;;11.52;73.42;100103.25;1658988;85;25774;-65
2022/11/11 09:01:19;;;;;;;415.85;246.13;;;;;;;11.83;73.88;100100.27;1659106;86;25683;-65
2022/11/11 09:03:46;;;;;;;121.85;83.27;;;;;;;12.00;72.66;100092.20;1659010;85;25753;-65
2022/11/11 09:06:13;;;;;;;37.42;27.05;;;;;;;12.08;71.57;100088.84;1659282;85;25651;-65
2022/11/11 09:08:44;;;;;;;50.28;41.23;;;;;;;12.22;71.39;100089.53;1659063;86;27421;-65
2022/11/11 09:11:10;;;;;;;22.20;15.38;;;;;;;12.30;70.75;100093.84;1658999;86;30421;-65
2022/11/11 09:13:36;;;;;;;24.63;14.10;;;;;;;12.26;69.37;100107.11;1659503;85;25692;-64
2022/11/11 09:16:03;;;;;;;35.45;25.97;;;;;;;12.31;71.28;100112.54;1659066;86;25761;-64
2022/11/11 09:18:30;;;;;;;25.97;16.27;;;;;;;12.33;71.08;100107.59;1659290;86;25490;-64
2022/11/11 09:21:00;;;;;;;20.32;12.63;;;;;;;12.31;69.98;100115.29;1659237;86;27475;-65
2022/11/11 09:23:27;;;;;;;21.07;14.30;;;;;;;12.18;70.68;100136.03;1659120;86;25684;-64
2022/11/11 09:25:53;;;;;;;26.68;19.02;;;;;;;12.07;71.13;100135.30;1659512;86;25691;-65
2022/11/11 09:28:19;;;;;;;22.05;16.17;;;;;;;11.90;70.69;100138.41;1659388;86;25781;-64
2022/11/11 09:30:46;;;;;;;36.83;30.00;;;;;;;11.72;71.39;100138.00;1659427;86;25669;-64
2022/11/11 09:33:15;;;;;;;22.15;12.78;;;;;;;11.61;72.00;100142.73;1659020;85;27353;-64
2022/11/11 09:35:41;;;;;;;20.72;12.88;;;;;;;11.57;72.44;100136.72;1659008;85;25659;-64
2022/11/11 09:38:09;;;;;;;18.52;11.53;;;;;;;11.48;72.70;100126.86;1659369;86;25447;-64
2022/11/11 09:40:53;;;;;;;25.02;14.40;;;;;;;11.49;72.67;100123.03;1660871;85;25796;-64
2022/11/11 09:43:36;;;;;;;18.40;11.45;;;;;;;11.58;73.19;100128.73;1610341;89;25732;-65
2022/11/11 09:46:46;;;;;;;17.02;11.18;;;;;;;11.92;72.59;100124.65;1638440;87;27336;-65
2022/11/11 09:50:01;;;;;;;19.87;14.10;;;;;;;12.27;71.91;100121.11;1634611;87;26434;-65
2022/11/11 09:52:45;;;;;;;17.15;12.53;;;;;;;12.89;70.74;100123.20;1638438;87;25492;-65
2022/11/11 09:55:34;;;;;;;15.63;11.48;;;;;;;13.30;68.35;100119.69;1638265;87;26811;-65
2022/11/11 09:58:15;;;;;;;45.75;35.33;;;;;;;13.62;67.24;100125.61;1638862;87;25660;-65
2022/11/11 10:00:46;;;;;;;20.82;16.05;;;;;;;13.62;67.24;100125.61;1638587;86;27442;-65
2022/11/11 10:03:19;;;;;;;13.55;8.85;;;;;;;13.51;66.81;100102.90;1638363;87;25445;-65
2022/11/11 10:05:57;;;;;;;18.20;14.15;;;;;;;13.51;67.12;100096.02;1638809;87;25631;-65
2022/11/11 10:08:30;;;;;;;12.50;8.78;;;;;;;13.69;67.54;100098.49;1638420;87;25672;-65
2022/11/11 10:10:59;;;;;;;14.15;9.55;;;;;;;13.95;66.54;100098.63;1638799;87;25667;-65
2022/11/11 10:13:34;;;;;;;13.35;7.90;;;;;;;14.12;65.22;100103.59;1638618;87;27400;-65
2022/11/11 10:16:32;;;;;;;10.50;7.42;;;;;;;14.33;65.33;100099.91;1638613;87;25636;-65
2022/11/11 10:19:19;;;;;;;12.35;8.00;;;;;;;14.53;64.94;100099.27;1638462;87;25502;-65
2022/11/11 10:21:52;;;;;;;13.28;7.47;;;;;;;14.59;63.79;100107.71;1638857;87;25712;-65
2022/11/11 10:24:41;;;;;;;12.98;7.70;;;;;;;14.78;64.02;100119.22;1638876;87;25579;-65
2022/11/11 10:27:21;;;;;;;10.63;7.62;;;;;;;15.07;62.93;100114.53;1638565;87;27425;-65
2022/11/11 10:29:49;;;;;;;13.55;7.97;;;;;;;15.29;63.04;100111.84;1637171;87;25627;-65
2022/11/11 10:32:35;;;;;;;10.93;7.40;;;;;;;15.66;62.09;100122.91;1638698;87;25495;-65
2022/11/11 10:35:19;;;;;;;14.07;6.55;;;;;;;15.81;60.53;100119.54;1641488;87;26296;-65
2022/11/11 10:37:46;;;;;;;12.35;7.60;;;;;;;16.14;58.66;100111.56;1641259;87;25593;-65
2022/11/11 10:40:33;;;;;;;14.43;7.80;;;;;;;16.44;59.40;100110.53;1641375;87;27408;-65
2022/11/11 10:42:59;;;;;;;11.00;7.12;;;;;;;16.79;60.33;100101.55;1641806;84;25488;-65
2022/11/11 10:45:39;;;;;;;11.28;7.40;;;;;;;17.08;57.82;100102.97;1640472;85;25639;-65
2022/11/11 10:48:10;;;;;;;8.65;6.60;;;;;;;17.25;57.04;100103.58;1640782;86;26988;-65
2022/11/11 10:50:49;;;;;;;10.50;6.70;;;;;;;17.33;56.80;100103.91;1641991;84;25701;-65
2022/11/11 10:53:45;;;;;;;11.53;6.67;;;;;;;17.28;56.45;100102.94;1641682;87;27447;-65
2022/11/11 10:56:29;;;;;;;9.18;6.80;;;;;;;17.17;55.67;100100.22;1596337;89;25721;-64
2022/11/11 10:59:07;;;;;;;10.32;7.17;;;;;;;17.06;56.04;100089.41;1609955;89;25840;-65
2022/11/11 11:01:53;;;;;;;8.35;5.85;;;;;;;17.00;55.85;100088.49;1589957;90;26216;-65
2022/11/11 11:04:43;;;;;;;9.35;5.85;;;;;;;16.94;55.56;100090.61;1559571;92;25536;-65
2022/11/11 11:07:14;;;;;;;10.72;7.12;;;;;;;16.97;55.58;100093.29;1559478;92;27900;-65
2022/11/11 11:09:49;;;;;;;9.55;7.10;;;;;;;16.95;55.65;100084.51;1559516;92;25840;-65
2022/11/11 11:12:23;;;;;;;10.58;6.30;;;;;;;16.94;55.54;100083.69;1558058;92;25727;-65
2022/11/11 11:14:54;;;;;;;11.28;6.97;;;;;;;16.92;55.88;100077.08;1559259;92;25769;-64
2022/11/11 11:17:25;;;;;;;9.15;6.62;;;;;;;16.92;55.66;100083.18;1559731;92;25733;-65
2022/11/11 11:20:19;;;;;;;10.13;6.35;;;;;;;16.92;55.84;100087.33;1559657;92;27305;-65
2022/11/11 11:22:56;;;;;;;9.13;6.40;;;;;;;16.89;54.84;100087.97;1559396;92;25661;-65
2022/11/11 11:25:22;;;;;;;9.45;5.78;;;;;;;16.88;55.84;100077.48;1559586;92;25579;-65
2022/11/11 11:27:51;;;;;;;12.90;7.80;;;;;;;16.89;54.66;100079.67;1559309;92;27882;-65
2022/11/11 11:30:25;;;;;;;12.70;8.10;;;;;;;16.89;54.66;100079.11;1559616;92;25495;-64
2022/11/11 11:33:00;;;;;;;18.35;12.15;;;;;;;16.87;55.07;100083.34;1560260;91;27489;-65
2022/11/11 11:35:39;;;;;;;38.92;20.80;;;;;;;16.85;54.48;100081.45;1560144;91;25514;-64
2022/11/11 11:38:09;;;;;;;52.88;30.08;;;;;;;16.64;54.65;100088.97;1558785;91;25722;-65
2022/11/11 11:40:52;;;;;;;728.65;496.37;;;;;;;16.62;54.97;100087.08;1563292;88;26437;-65
2022/11/11 11:43:35;;;;;;;198.28;122.72;;;;;;;16.70;55.72;100096.55;1609770;88;26024;-65
2022/11/11 11:46:15;;;;;;;50.60;39.58;;;;;;;16.70;54.08;100087.69;1612995;88;27424;-64
2022/11/11 11:49:08;;;;;;;46.40;41.48;;;;;;;16.72;55.63;100085.98;1553700;92;27167;-65
2022/11/11 11:52:10;;;;;;;19.67;16.15;;;;;;;16.92;54.88;100084.00;1553612;92;25616;-65
2022/11/11 11:55:00;;;;;;;20.00;15.03;;;;;;;17.02;54.86;100080.69;1549458;92;25940;-65
2022/11/11 11:57:48;;;;;;;12.63;10.28;;;;;;;16.90;54.17;100086.27;1539945;92;25801;-65
2022/11/11 12:00:20;;;;;;;18.42;15.05;;;;;;;16.84;54.12;100075.09;1539943;93;27594;-65
2022/11/11 12:03:07;;;;;;;24.70;21.45;;;;;;;16.62;54.98;100082.37;1540069;93;25824;-65
2022/11/11 12:05:51;;;;;;;16.67;12.28;;;;;;;16.53;54.47;100083.70;1539725;93;25613;-65
2022/11/11 12:08:38;;;;;;;29.82;25.27;;;;;;;16.48;55.63;100077.49;1539686;93;25662;-65
2022/11/11 12:11:18;;;;;;;11.93;8.85;;;;;;;16.30;54.90;100079.60;1540001;93;25567;-65
2022/11/11 12:14:09;;;;;;;18.37;11.38;;;;;;;16.09;55.55;100082.09;1539969;93;28023;-65
2022/11/11 12:17:01;;;;;;;12.03;9.08;;;;;;;15.77;56.65;100080.64;1539738;93;25711;-65
2022/11/11 12:19:48;;;;;;;43.20;37.80;;;;;;;15.56;56.40;100076.17;1537888;93;25717;-65
2022/11/11 12:23:01;;;;;;;30.60;24.02;;;;;;;15.34;57.91;100080.53;1539277;93;25776;-65
2022/11/11 12:26:00;;;;;;;13.85;10.43;;;;;;;15.23;57.81;100075.00;1575625;88;25535;-63
2022/11/11 12:28:38;;;;;;;126.82;92.97;;;;;;;15.04;59.06;100075.39;1617102;88;29537;-65
2022/11/11 12:31:28;;;;;;;15.08;10.58;;;;;;;14.84;58.82;100070.29;1616870;88;25727;-65
2022/11/11 12:34:18;;;;;;;64.92;47.78;;;;;;;14.75;60.35;100064.09;1615431;87;25841;-65
2022/11/11 12:37:02;;;;;;;28.77;20.43;;;;;;;14.63;60.47;100066.00;1616590;87;25870;-65
2022/11/11 12:39:55;;;;;;;17.60;11.78;;;;;;;14.58;60.39;100068.02;1615650;88;25703;-65
2022/11/11 12:42:51;;;;;;;13.75;10.03;;;;;;;14.47;60.60;100068.22;1617113;88;27491;-65